Baker Lake Airport
CYBK : rendu visible

Aérodrome :











RETROUVEZ-NOUS SUR...

 
LOGIN :

S'inscrire | Disclaimer

   EN    FR    IT 

 









Légende :    VFR   VFR Marginal   IFR   IFR Intensif   IFR Très Intensif
Visi : 
Plafond : 
>= 8 km
>= 3000ft
5 à 8 km
1000 à 3000 ft
1500m à 5 km
500 à 1000 ft
800 à 1500m
200 à 500 ft
< 800m
< 200 ft
Symboles :   Orages  Brouillard  Fortes neiges  Fortes précipitations  Vent > 20 kt






- Altitude de l'aérodrome : 59 ft
- Code IATA : YBK


CYBK - Baker Lake

DERNIER METAR :
  • 210900Z 31016KT 15SM IC FEW030 M24/M28 A3010 RMK SC1 SLP196

METARs EXPIRÉS :
  • 210800Z 31016KT 15SM IC FEW030 M24/M27 A3011 RMK SC1 SLP201
  • 210700Z 32015KT 15SM IC FEW030 M24/M28 A3012 RMK SC1 SLP206
  • 210600Z 32017KT 15SM IC FEW030 M24/M28 A3014 RMK SC1 SLP210

TAF TAF CYBK
Valide du 21 à 06h jusqu'au 21 à 18h UTC


210538Z 2106/2118 31015KT P6SM IC FEW030
TEMPO 2106/2118 5SM IC
BECMG 2116/2118 32010KT RMK NXT FCST BY 211200Z



MET'MAP, la Météo Aéronautique d'un coup d'oeil ! - Copyright ORBIFLY Décembre 2007 - Disclaimer

ORBIFLY MET'MAP TEAM :

Programmation & Développement : Alexandra Zaïnal
Conception & Développement : Baudouin d'Aumeries
Co-Programmation & Développement : Marc-Olivier Méhu
Soutien technique & logistique : Manuel Goepfert

Contact : metmap@orbifly.com




SOURCES & CREDITS :

   NOAA       Earth
Advisory